createdAt,value
2018-08-14T00:00:27.707Z,54.60
2018-08-14T00:02:56.427Z,54.50
2018-08-14T00:05:24.788Z,54.50
2018-08-14T00:07:53.161Z,54.50
2018-08-14T00:10:21.547Z,54.50
2018-08-14T00:12:49.961Z,54.40
2018-08-14T00:15:18.387Z,54.40
2018-08-14T00:17:48.117Z,54.50
2018-08-14T00:20:18.936Z,54.30
2018-08-14T00:22:47.641Z,54.30
2018-08-14T00:25:16.041Z,54.30
2018-08-14T00:27:44.894Z,54.30
2018-08-14T00:30:15.413Z,54.50
2018-08-14T00:32:43.887Z,54.30
2018-08-14T00:35:12.265Z,54.30
2018-08-14T00:37:40.653Z,54.30
2018-08-14T00:40:13.411Z,54.30
2018-08-14T00:42:41.785Z,54.20
2018-08-14T00:45:12.373Z,54.20
2018-08-14T00:47:40.797Z,54.20
2018-08-14T00:50:10.013Z,54.20
2018-08-14T00:52:38.374Z,54.20
2018-08-14T00:55:08.060Z,54.20
2018-08-14T00:57:36.443Z,54.20
2018-08-14T01:00:07.269Z,54.30
2018-08-14T01:02:35.725Z,54.20
2018-08-14T01:05:04.595Z,54.30
2018-08-14T01:07:33.049Z,54.20
2018-08-14T01:10:01.384Z,54.20
2018-08-14T01:12:29.699Z,54.20
2018-08-14T01:14:58.042Z,54.20
2018-08-14T01:17:26.499Z,54.10
2018-08-14T01:19:54.952Z,54.10
2018-08-14T01:22:23.311Z,54.10
2018-08-14T01:24:51.846Z,54.00
2018-08-14T01:27:20.244Z,54.00
2018-08-14T01:29:48.627Z,53.90
2018-08-14T01:32:17.051Z,53.90
2018-08-14T01:34:45.408Z,53.90
2018-08-14T01:37:13.720Z,53.90
2018-08-14T01:39:42.035Z,53.80
2018-08-14T01:42:10.412Z,53.70
2018-08-14T01:44:38.776Z,53.80
2018-08-14T01:47:07.524Z,53.70
2018-08-14T01:49:35.880Z,53.70
2018-08-14T01:52:04.522Z,53.70
2018-08-14T01:54:32.890Z,53.70
2018-08-14T01:57:01.337Z,53.70
2018-08-14T01:59:29.670Z,53.60
2018-08-14T02:01:57.982Z,53.60
2018-08-14T02:04:26.468Z,53.60
2018-08-14T02:06:54.779Z,53.50
2018-08-14T02:09:23.154Z,53.50
2018-08-14T02:11:51.510Z,53.50
2018-08-14T02:14:19.837Z,53.50
2018-08-14T02:16:48.185Z,53.40
2018-08-14T02:19:16.537Z,53.50
2018-08-14T02:21:44.885Z,53.40
2018-08-14T02:24:13.251Z,53.30
2018-08-14T02:26:41.659Z,53.30
2018-08-14T02:29:10.038Z,53.30
2018-08-14T02:31:38.617Z,53.20
2018-08-14T02:34:07.883Z,53.20
2018-08-14T02:36:36.272Z,53.10
2018-08-14T02:39:08.049Z,53.80
2018-08-14T02:41:36.542Z,53.10
2018-08-14T02:44:05.077Z,53.00
2018-08-14T02:46:33.504Z,53.00
2018-08-14T02:49:02.205Z,53.00
2018-08-14T02:51:30.875Z,53.00
2018-08-14T02:53:59.781Z,52.90
2018-08-14T02:56:28.090Z,52.90
2018-08-14T02:58:56.445Z,52.90
2018-08-14T03:01:24.889Z,52.90
2018-08-14T03:03:53.227Z,52.90
2018-08-14T03:06:21.657Z,52.80
2018-08-14T03:08:50.011Z,52.80
2018-08-14T03:11:18.459Z,52.70
2018-08-14T03:13:46.899Z,52.70
2018-08-14T03:16:15.285Z,52.70
2018-08-14T03:18:43.781Z,52.70
2018-08-14T03:21:12.225Z,52.60
2018-08-14T03:23:40.581Z,52.60
2018-08-14T03:26:08.977Z,52.60
2018-08-14T03:28:37.340Z,52.60
2018-08-14T03:31:06.170Z,52.50
2018-08-14T03:33:34.544Z,52.60
2018-08-14T03:36:02.904Z,52.50
2018-08-14T03:38:31.368Z,52.50
2018-08-14T03:40:59.730Z,52.50
2018-08-14T03:43:28.062Z,52.40
2018-08-14T03:45:56.411Z,52.40
2018-08-14T03:48:24.763Z,52.40
2018-08-14T03:50:53.113Z,52.30
2018-08-14T03:53:21.440Z,52.30
2018-08-14T03:55:49.809Z,52.30
2018-08-14T03:58:18.181Z,52.40
2018-08-14T04:00:46.558Z,52.50
2018-08-14T04:03:15.077Z,52.40
2018-08-14T04:05:43.410Z,52.30
2018-08-14T04:08:11.763Z,52.30
2018-08-14T04:10:40.124Z,52.20
2018-08-14T04:13:08.531Z,52.10
2018-08-14T04:15:36.905Z,52.70
2018-08-14T04:18:10.285Z,53.00
2018-08-14T04:20:39.357Z,53.70
2018-08-14T04:23:07.680Z,53.40
2018-08-14T04:25:35.984Z,53.00
2018-08-14T04:28:04.380Z,52.70
2018-08-14T04:30:32.821Z,52.50
2018-08-14T04:33:01.212Z,52.30
2018-08-14T04:35:29.557Z,52.20
2018-08-14T04:37:57.925Z,52.60
2018-08-14T04:40:26.248Z,52.70
2018-08-14T04:42:54.738Z,52.70
2018-08-14T04:45:23.072Z,52.70
2018-08-14T04:47:51.378Z,52.70
2018-08-14T04:50:19.876Z,52.70
2018-08-14T04:52:48.254Z,52.70
2018-08-14T04:55:16.723Z,52.70
2018-08-14T04:57:45.239Z,52.60
2018-08-14T05:00:15.247Z,52.70
2018-08-14T05:02:44.337Z,52.80
2018-08-14T05:05:13.743Z,52.90
2018-08-14T05:07:42.220Z,52.90
2018-08-14T05:10:12.767Z,52.90
2018-08-14T05:12:41.114Z,52.80
2018-08-14T05:15:10.131Z,53.50
2018-08-14T05:17:38.477Z,52.80
2018-08-14T05:20:08.517Z,52.80
2018-08-14T05:22:36.961Z,52.70
2018-08-14T05:25:05.780Z,52.60
2018-08-14T05:27:34.263Z,53.00
2018-08-14T05:30:02.970Z,52.70
2018-08-14T05:32:31.717Z,52.50
2018-08-14T05:35:00.552Z,52.50
2018-08-14T05:37:29.037Z,52.50
2018-08-14T05:39:57.490Z,52.60
2018-08-14T05:42:25.851Z,52.70
2018-08-14T05:44:54.300Z,52.70
2018-08-14T05:47:22.638Z,52.80
2018-08-14T05:49:50.982Z,52.90
2018-08-14T05:52:19.296Z,52.90
2018-08-14T05:54:47.681Z,53.00
2018-08-14T05:57:16.071Z,53.10
2018-08-14T05:59:44.426Z,53.30
2018-08-14T06:02:12.752Z,53.40
2018-08-14T06:04:41.089Z,53.50
2018-08-14T06:07:09.766Z,53.60
2018-08-14T06:09:38.132Z,53.70
2018-08-14T06:12:07.062Z,53.70
2018-08-14T06:14:35.585Z,53.80
2018-08-14T06:17:04.002Z,53.90
2018-08-14T06:19:32.340Z,53.80
2018-08-14T06:22:00.721Z,53.80
2018-08-14T06:24:29.092Z,53.70
2018-08-14T06:26:57.531Z,53.80
2018-08-14T06:29:25.903Z,53.70
2018-08-14T06:31:54.231Z,53.80
2018-08-14T06:34:22.675Z,53.80
2018-08-14T06:36:51.039Z,53.70
2018-08-14T06:39:19.435Z,53.70
2018-08-14T06:41:47.830Z,53.70
2018-08-14T06:44:16.240Z,53.70
2018-08-14T06:46:44.690Z,53.70
2018-08-14T06:49:13.160Z,53.80
2018-08-14T06:51:41.499Z,53.70
2018-08-14T06:54:09.825Z,53.70
2018-08-14T06:56:38.188Z,53.80
2018-08-14T06:59:06.683Z,53.70
2018-08-14T07:01:35.103Z,53.80
2018-08-14T07:04:03.503Z,53.70
2018-08-14T07:06:31.833Z,53.70
2018-08-14T07:09:00.226Z,54.00
2018-08-14T07:11:28.560Z,53.80
2018-08-14T07:13:56.968Z,53.80
2018-08-14T07:16:25.421Z,53.80
2018-08-14T07:18:53.915Z,53.80
2018-08-14T07:21:22.284Z,53.80
2018-08-14T07:23:50.885Z,53.80
2018-08-14T07:26:19.233Z,53.80
2018-08-14T07:28:47.603Z,53.80
2018-08-14T07:31:15.920Z,53.80
2018-08-14T07:33:44.245Z,53.80
2018-08-14T07:36:12.794Z,53.80
2018-08-14T07:38:41.140Z,53.80
2018-08-14T07:41:09.515Z,53.80
2018-08-14T07:43:37.953Z,53.90
2018-08-14T07:46:06.799Z,54.00
2018-08-14T07:48:35.294Z,53.40
2018-08-14T07:51:03.696Z,53.90
2018-08-14T07:53:32.118Z,53.80
2018-08-14T07:56:00.594Z,53.90
2018-08-14T07:58:28.949Z,53.90
2018-08-14T08:00:57.464Z,53.80
2018-08-14T08:03:25.988Z,54.00
2018-08-14T08:05:56.122Z,53.90
2018-08-14T08:08:24.551Z,53.80
2018-08-14T08:10:52.947Z,54.00
2018-08-14T08:13:21.337Z,53.80
2018-08-14T08:15:49.760Z,53.70
2018-08-14T08:18:18.178Z,53.70
2018-08-14T08:20:46.524Z,53.70
2018-08-14T08:23:14.984Z,53.70
2018-08-14T08:25:43.391Z,53.60
2018-08-14T08:28:11.836Z,53.50
2018-08-14T08:30:40.227Z,53.60
2018-08-14T08:33:08.576Z,53.70
2018-08-14T08:35:36.958Z,53.50
2018-08-14T08:38:05.370Z,53.40
2018-08-14T08:40:34.074Z,54.00
2018-08-14T08:43:02.732Z,53.40
2018-08-14T08:45:31.258Z,53.50
2018-08-14T08:48:11.002Z,53.50
2018-08-14T08:50:39.399Z,53.50
2018-08-14T08:53:07.903Z,53.40
2018-08-14T08:55:36.340Z,53.50
2018-08-14T08:58:04.901Z,53.50
2018-08-14T09:00:33.245Z,53.40
2018-08-14T09:03:01.619Z,53.40
2018-08-14T09:05:30.058Z,53.60
2018-08-14T09:07:58.419Z,53.50
2018-08-14T09:10:26.917Z,53.40
2018-08-14T09:12:55.306Z,53.40
2018-08-14T09:15:23.715Z,53.50
2018-08-14T09:17:52.156Z,53.40
2018-08-14T09:20:20.609Z,53.30
2018-08-14T09:22:48.995Z,53.50
2018-08-14T09:25:17.334Z,53.40
2018-08-14T09:27:46.610Z,53.40
2018-08-14T09:30:16.338Z,53.30
2018-08-14T09:32:44.862Z,53.30
2018-08-14T09:35:16.090Z,53.30
2018-08-14T09:37:44.568Z,53.20
2018-08-14T09:40:16.991Z,53.20
2018-08-14T09:42:45.642Z,53.10
2018-08-14T09:45:14.226Z,53.10
2018-08-14T09:47:42.955Z,53.20
2018-08-14T09:50:19.227Z,53.10
2018-08-14T09:52:48.453Z,53.20
2018-08-14T09:55:17.871Z,53.20
2018-08-14T09:57:47.517Z,53.30
2018-08-14T10:00:26.052Z,53.10
2018-08-14T10:02:59.945Z,53.00
2018-08-14T10:05:33.617Z,53.10
2018-08-14T10:08:07.152Z,53.20
2018-08-14T10:10:35.907Z,53.10
2018-08-14T10:13:04.615Z,53.00
2018-08-14T10:15:32.999Z,53.00
2018-08-14T10:18:01.460Z,53.10
2018-08-14T10:20:30.225Z,53.20
2018-08-14T10:22:59.008Z,53.10
2018-08-14T10:25:28.319Z,52.90
2018-08-14T10:27:56.684Z,52.80
2018-08-14T10:30:25.075Z,52.80
2018-08-14T10:32:53.470Z,53.00
2018-08-14T10:35:21.992Z,52.90
2018-08-14T10:37:50.396Z,52.90
2018-08-14T10:40:18.760Z,52.90
2018-08-14T10:42:47.146Z,53.00
2018-08-14T10:45:17.166Z,53.10
2018-08-14T10:47:46.514Z,52.90
2018-08-14T10:50:19.780Z,52.80
2018-08-14T10:52:48.690Z,52.90
2018-08-14T10:55:17.438Z,53.00
2018-08-14T10:57:46.348Z,52.90
2018-08-14T11:00:24.885Z,52.90
2018-08-14T11:02:53.477Z,52.80
2018-08-14T11:05:22.661Z,52.80
2018-08-14T11:07:51.643Z,52.80
2018-08-14T11:10:26.493Z,52.90
2018-08-14T11:12:55.547Z,53.10
2018-08-14T11:15:23.941Z,53.10
2018-08-14T11:17:52.323Z,53.10
2018-08-14T11:20:23.157Z,53.10
2018-08-14T11:22:51.847Z,53.00
2018-08-14T11:25:20.286Z,53.10
2018-08-14T11:27:48.816Z,53.10
2018-08-14T11:30:18.819Z,53.20
2018-08-14T11:32:47.327Z,53.20
2018-08-14T11:35:15.960Z,53.20
2018-08-14T11:37:44.386Z,53.20
2018-08-14T11:40:13.448Z,53.20
2018-08-14T11:42:42.017Z,53.20
2018-08-14T11:45:26.730Z,53.20
2018-08-14T11:47:55.111Z,53.40
2018-08-14T11:50:23.469Z,53.60
2018-08-14T11:52:53.276Z,53.60
2018-08-14T11:55:22.386Z,53.60
2018-08-14T11:57:51.567Z,53.60
2018-08-14T12:00:21.462Z,53.70
2018-08-14T12:02:50.466Z,53.70
2018-08-14T12:05:19.009Z,53.70
2018-08-14T12:07:47.365Z,53.70
2018-08-14T12:10:17.029Z,53.70
2018-08-14T12:12:45.580Z,53.90
2018-08-14T12:15:15.127Z,53.90
2018-08-14T12:17:44.655Z,54.10
2018-08-14T12:20:14.839Z,53.90
2018-08-14T12:22:43.443Z,54.00
2018-08-14T12:25:13.359Z,54.10
2018-08-14T12:27:41.835Z,54.10
2018-08-14T12:30:13.511Z,54.30
2018-08-14T12:32:42.091Z,54.30
2018-08-14T12:35:10.952Z,54.40
2018-08-14T12:37:39.645Z,54.50
2018-08-14T12:40:09.683Z,54.50
2018-08-14T12:42:38.450Z,54.40
2018-08-14T12:45:11.599Z,54.40
2018-08-14T12:47:39.947Z,54.20
2018-08-14T12:50:09.139Z,54.20
2018-08-14T12:52:37.573Z,54.30
2018-08-14T12:55:06.062Z,54.30
2018-08-14T12:57:34.440Z,54.30
2018-08-14T13:00:02.869Z,54.50
2018-08-14T13:02:32.221Z,54.40
2018-08-14T13:05:00.696Z,54.40
2018-08-14T13:07:29.050Z,54.30
2018-08-14T13:09:57.525Z,54.40
2018-08-14T13:12:25.852Z,54.40
2018-08-14T13:14:54.546Z,54.40
2018-08-14T13:17:23.010Z,54.40
2018-08-14T13:19:51.376Z,54.40
2018-08-14T13:22:19.913Z,54.50
2018-08-14T13:24:48.427Z,54.40
2018-08-14T13:27:16.844Z,54.40
2018-08-14T13:29:45.274Z,54.40
2018-08-14T13:32:22.756Z,54.30
2018-08-14T13:34:51.311Z,54.20
2018-08-14T13:37:19.721Z,54.10
2018-08-14T13:39:48.124Z,54.00
2018-08-14T13:42:16.451Z,54.00
2018-08-14T13:44:44.895Z,54.00
2018-08-14T13:47:13.395Z,54.00
2018-08-14T13:49:41.783Z,54.00
2018-08-14T13:52:10.350Z,54.00
2018-08-14T13:54:38.792Z,53.90
2018-08-14T13:57:07.362Z,53.80
2018-08-14T13:59:35.798Z,53.80
2018-08-14T14:02:04.232Z,53.70
2018-08-14T14:04:32.730Z,53.80
2018-08-14T14:07:01.158Z,53.70
2018-08-14T14:09:30.168Z,53.70
2018-08-14T14:11:58.586Z,54.50
2018-08-14T14:14:27.087Z,53.80
2018-08-14T14:16:55.445Z,53.80
2018-08-14T14:19:23.839Z,53.80
2018-08-14T14:21:52.221Z,53.70
2018-08-14T14:24:20.563Z,53.60
2018-08-14T14:26:48.960Z,53.70
2018-08-14T14:29:17.431Z,53.70
2018-08-14T14:31:45.817Z,53.80
2018-08-14T14:34:14.319Z,53.90
2018-08-14T14:36:42.732Z,53.90
2018-08-14T14:39:11.144Z,53.90
2018-08-14T14:41:39.615Z,53.90
2018-08-14T14:44:08.101Z,53.80
2018-08-14T14:46:36.501Z,53.70
2018-08-14T14:49:05.103Z,53.70
2018-08-14T14:51:33.636Z,53.70
2018-08-14T14:54:02.118Z,53.80
2018-08-14T14:56:30.524Z,53.80
2018-08-14T14:58:58.925Z,53.80
2018-08-14T15:01:27.317Z,53.90
2018-08-14T15:03:55.688Z,53.90
2018-08-14T15:06:24.079Z,53.70
2018-08-14T15:08:52.457Z,53.70
2018-08-14T15:11:20.818Z,53.70
2018-08-14T15:13:49.224Z,53.60
2018-08-14T15:16:17.642Z,53.60
2018-08-14T15:18:46.236Z,53.60
2018-08-14T15:21:14.610Z,53.50
2018-08-14T15:23:42.990Z,53.50
2018-08-14T15:26:11.446Z,53.50
2018-08-14T15:28:53.974Z,53.50
2018-08-14T15:31:23.266Z,53.50
2018-08-14T15:33:54.004Z,53.50
2018-08-14T15:36:23.502Z,53.50
2018-08-14T15:38:52.788Z,53.30
2018-08-14T15:41:21.237Z,53.20
2018-08-14T15:43:49.608Z,53.20
2018-08-14T15:46:18.182Z,53.40
2018-08-14T15:48:46.742Z,53.40
2018-08-14T15:51:15.345Z,53.40
2018-08-14T15:53:43.841Z,53.40
2018-08-14T15:56:12.596Z,53.40
2018-08-14T15:58:40.922Z,53.50
2018-08-14T16:01:09.491Z,53.40
2018-08-14T16:03:37.899Z,53.40
2018-08-14T16:06:06.594Z,53.50
2018-08-14T16:08:34.963Z,53.70
2018-08-14T16:11:03.675Z,53.40
2018-08-14T16:13:32.123Z,53.40
2018-08-14T16:16:00.699Z,53.90
2018-08-14T16:18:29.277Z,53.40
2018-08-14T16:20:58.020Z,53.40
2018-08-14T16:23:26.417Z,53.40
2018-08-14T16:25:54.784Z,53.40
2018-08-14T16:28:23.119Z,53.40
2018-08-14T16:30:51.575Z,53.60
2018-08-14T16:33:19.969Z,53.50
2018-08-14T16:35:48.498Z,53.50
2018-08-14T16:38:16.929Z,53.50
2018-08-14T16:40:45.609Z,53.50
2018-08-14T16:43:14.244Z,53.50
2018-08-14T16:45:43.158Z,53.50
2018-08-14T16:48:11.630Z,53.60
2018-08-14T16:50:40.121Z,53.60
2018-08-14T16:53:09.733Z,53.70
2018-08-14T16:55:38.235Z,53.70
2018-08-14T16:58:07.038Z,53.70
2018-08-14T17:00:36.551Z,53.70
2018-08-14T17:03:06.428Z,53.70
2018-08-14T17:05:34.959Z,53.80
2018-08-14T17:08:03.475Z,53.80
2018-08-14T17:10:31.755Z,53.80
2018-08-14T17:13:00.219Z,53.80
2018-08-14T17:15:28.746Z,53.80
2018-08-14T17:17:57.134Z,53.80
2018-08-14T17:20:24.623Z,53.80
2018-08-14T17:22:54.156Z,53.90
2018-08-14T17:25:22.568Z,54.00
2018-08-14T17:27:52.061Z,53.90
2018-08-14T17:30:24.258Z,53.90
2018-08-14T17:32:54.161Z,54.00
2018-08-14T17:35:24.722Z,54.00
2018-08-14T17:37:54.528Z,54.00
2018-08-14T17:40:24.395Z,54.10
2018-08-14T17:42:52.922Z,54.00
2018-08-14T17:45:26.282Z,54.10
2018-08-14T17:47:56.954Z,54.00
2018-08-14T17:50:25.845Z,54.90
2018-08-14T17:52:54.311Z,54.10
2018-08-14T17:55:23.528Z,54.20
2018-08-14T17:57:51.973Z,54.20
2018-08-14T18:00:26.012Z,54.30
2018-08-14T18:02:59.035Z,54.20
2018-08-14T18:05:27.572Z,54.40
2018-08-14T18:07:56.037Z,54.40
2018-08-14T18:10:25.112Z,54.40
2018-08-14T18:12:53.647Z,54.40
2018-08-14T18:15:22.759Z,54.40
2018-08-14T18:17:51.203Z,54.40
2018-08-14T18:20:21.200Z,54.40
2018-08-14T18:22:49.854Z,55.10
2018-08-14T18:25:19.564Z,54.40
2018-08-14T18:27:48.674Z,54.50
2018-08-14T18:30:18.601Z,54.50
2018-08-14T18:32:47.310Z,54.50
2018-08-14T18:35:16.064Z,54.50
2018-08-14T18:37:45.050Z,54.50
2018-08-14T18:40:15.633Z,54.50
2018-08-14T18:42:44.716Z,54.60
2018-08-14T18:45:14.993Z,54.50
2018-08-14T18:47:43.723Z,55.10
2018-08-14T18:50:13.633Z,54.60
2018-08-14T18:52:42.445Z,55.20
2018-08-14T18:55:13.260Z,54.50
2018-08-14T18:57:42.861Z,54.70
2018-08-14T19:00:20.606Z,54.70
2018-08-14T19:02:50.387Z,54.60
2018-08-14T19:05:20.379Z,54.70
2018-08-14T19:07:49.975Z,54.80
2018-08-14T19:10:20.553Z,54.60
2018-08-14T19:12:50.178Z,54.70
2018-08-14T19:15:25.916Z,54.70
2018-08-14T19:17:54.721Z,54.60
2018-08-14T19:20:23.592Z,54.60
2018-08-14T19:22:52.229Z,54.50
2018-08-14T19:25:20.816Z,54.50
2018-08-14T19:27:49.520Z,54.50
2018-08-14T19:30:18.102Z,54.50
2018-08-14T19:32:47.022Z,54.50
2018-08-14T19:35:17.669Z,54.50
2018-08-14T19:37:49.234Z,54.50
2018-08-14T19:40:23.770Z,54.40
2018-08-14T19:42:52.943Z,54.40
2018-08-14T19:45:21.608Z,54.30
2018-08-14T19:47:50.712Z,54.30
2018-08-14T19:50:20.264Z,54.30
2018-08-14T19:52:49.161Z,54.20
2018-08-14T19:55:20.102Z,54.30
2018-08-14T19:57:50.706Z,54.20
2018-08-14T20:00:22.623Z,54.20
2018-08-14T20:02:52.984Z,54.20
2018-08-14T20:05:22.165Z,54.10
2018-08-14T20:07:51.682Z,54.20
2018-08-14T20:10:20.881Z,54.20
2018-08-14T20:12:50.206Z,54.20
2018-08-14T20:15:24.569Z,54.20
2018-08-14T20:17:53.209Z,54.20
2018-08-14T20:20:22.799Z,54.30
2018-08-14T20:22:51.877Z,54.30
2018-08-14T20:25:20.381Z,54.30
2018-08-14T20:27:49.045Z,54.30
2018-08-14T20:30:18.548Z,54.40
2018-08-14T20:32:47.348Z,54.40
2018-08-14T20:35:16.819Z,54.50
2018-08-14T20:37:46.311Z,54.50
2018-08-14T20:40:17.104Z,54.40
2018-08-14T20:42:48.603Z,54.50
2018-08-14T20:45:17.355Z,54.50
2018-08-14T20:47:47.869Z,54.50
2018-08-14T20:50:31.299Z,54.80
2018-08-14T20:53:08.213Z,54.50
2018-08-14T20:55:38.125Z,54.50
2018-08-14T20:58:07.136Z,54.50
2018-08-14T21:00:41.869Z,54.70
2018-08-14T21:03:11.055Z,54.70
2018-08-14T21:08:34.805Z,54.80
2018-08-14T21:11:04.623Z,54.80
2018-08-14T21:13:37.852Z,54.80
2018-08-14T21:16:25.477Z,54.90
2018-08-14T21:18:56.695Z,54.90
2018-08-14T21:21:27.558Z,54.80
2018-08-14T21:23:56.784Z,54.90
2018-08-14T21:26:57.515Z,54.90
2018-08-14T21:32:00.187Z,54.90
2018-08-14T21:34:29.559Z,54.90
2018-08-14T21:36:58.786Z,54.90
2018-08-14T21:39:27.443Z,54.90
2018-08-14T21:41:55.919Z,54.90
2018-08-14T21:44:24.567Z,55.00
2018-08-14T21:46:54.001Z,54.90
2018-08-14T21:49:22.995Z,54.90
2018-08-14T21:51:51.694Z,55.50
2018-08-14T21:54:20.635Z,54.90
2018-08-14T21:56:49.735Z,55.00
2018-08-14T21:59:18.567Z,55.00
2018-08-14T22:01:47.511Z,55.10
2018-08-14T22:04:16.201Z,55.00
2018-08-14T22:06:45.209Z,55.00
2018-08-14T22:09:14.125Z,55.00
2018-08-14T22:11:43.119Z,55.10
2018-08-14T22:14:12.144Z,55.10
2018-08-14T22:16:41.999Z,55.20
2018-08-14T22:19:10.971Z,55.10
2018-08-14T22:21:40.136Z,55.10
2018-08-14T22:24:09.292Z,55.20
2018-08-14T22:26:37.916Z,55.10
2018-08-14T22:29:06.785Z,55.10
2018-08-14T22:31:35.497Z,55.20
2018-08-14T22:34:04.381Z,55.20
2018-08-14T22:36:33.112Z,55.20
2018-08-14T22:39:01.660Z,55.20
2018-08-14T22:41:31.568Z,55.10
2018-08-14T22:44:00.364Z,55.10
2018-08-14T22:46:28.914Z,55.80
2018-08-14T22:48:57.534Z,55.30
2018-08-14T22:51:26.111Z,55.20
2018-08-14T22:53:54.733Z,55.20
2018-08-14T22:56:23.742Z,55.30
2018-08-14T22:58:52.338Z,55.20
2018-08-14T23:01:21.319Z,55.70
2018-08-14T23:03:52.166Z,55.40
2018-08-14T23:06:25.672Z,55.30
2018-08-14T23:08:54.999Z,55.30
2018-08-14T23:11:23.630Z,55.30
2018-08-14T23:13:53.774Z,55.30
2018-08-14T23:16:23.576Z,55.30
2018-08-14T23:18:53.003Z,55.40
2018-08-14T23:21:25.067Z,55.30
2018-08-14T23:23:54.833Z,55.30
2018-08-14T23:26:23.841Z,55.30
2018-08-14T23:28:58.851Z,55.20
2018-08-14T23:31:27.603Z,55.20
2018-08-14T23:33:56.529Z,55.30
2018-08-14T23:36:25.914Z,55.20
2018-08-14T23:39:01.486Z,55.30
2018-08-14T23:41:30.091Z,55.30
2018-08-14T23:44:04.042Z,55.30
2018-08-14T23:46:33.148Z,55.40
2018-08-14T23:49:02.238Z,55.40
2018-08-14T23:52:18.560Z,55.40
2018-08-14T23:54:48.342Z,55.40
2018-08-14T23:57:17.612Z,55.40
2018-08-14T23:59:47.013Z,55.40
